createdAt,value
2023-06-17T00:02:50.275Z,14.11
2023-06-17T00:07:52.361Z,14.08
2023-06-17T00:12:52.993Z,14.11
2023-06-17T00:17:53.692Z,14.11
2023-06-17T00:22:55.748Z,14.03
2023-06-17T00:27:56.406Z,13.97
2023-06-17T00:32:57.144Z,14.00
2023-06-17T00:37:59.262Z,13.83
2023-06-17T00:43:00.244Z,13.88
2023-06-17T00:48:01.055Z,13.80
2023-06-17T00:53:03.173Z,13.81
2023-06-17T00:58:04.196Z,13.82
2023-06-17T01:03:06.615Z,13.79
2023-06-17T01:08:21.296Z,13.75
2023-06-17T01:13:24.745Z,13.70
2023-06-17T01:18:27.076Z,13.66
2023-06-17T01:23:33.487Z,13.58
2023-06-17T01:28:38.108Z,13.50
2023-06-17T01:33:40.840Z,13.40
2023-06-17T01:38:46.252Z,13.47
2023-06-17T01:43:51.047Z,13.42
2023-06-17T01:48:54.847Z,13.48
2023-06-17T01:53:55.495Z,13.52
2023-06-17T01:58:57.629Z,13.52
2023-06-17T02:03:59.317Z,13.55
2023-06-17T02:09:00.283Z,13.65
2023-06-17T02:14:02.338Z,13.67
2023-06-17T02:19:04.314Z,13.66
2023-06-17T02:24:05.134Z,13.62
2023-06-17T02:29:07.154Z,13.53
2023-06-17T02:34:07.817Z,13.45
2023-06-17T02:39:09.230Z,13.51
2023-06-17T02:44:11.598Z,13.61
2023-06-17T02:49:14.428Z,13.67
2023-06-17T02:54:15.117Z,13.75
2023-06-17T02:59:18.038Z,13.74
2023-06-17T03:04:21.427Z,13.79
2023-06-17T03:09:22.161Z,13.85
2023-06-17T03:14:25.848Z,13.72
2023-06-17T03:19:26.920Z,13.86
2023-06-17T03:24:27.893Z,13.98
2023-06-17T03:29:31.282Z,14.02
2023-06-17T03:34:35.176Z,14.10
2023-06-17T03:39:43.439Z,14.07
2023-06-17T03:44:47.236Z,14.05
2023-06-17T03:49:48.170Z,14.10
2023-06-17T03:54:49.668Z,14.14
2023-06-17T03:59:51.744Z,14.26
2023-06-17T04:04:53.868Z,14.42
2023-06-17T04:10:06.373Z,14.79
2023-06-17T04:15:10.656Z,14.98
2023-06-17T04:20:13.325Z,15.03
2023-06-17T04:25:16.589Z,15.37
2023-06-17T04:30:22.331Z,15.42
2023-06-17T04:35:24.332Z,15.20
2023-06-17T04:40:26.336Z,15.47
2023-06-17T04:45:28.334Z,15.56
2023-06-17T04:50:33.674Z,15.73
2023-06-17T04:55:36.489Z,16.04
2023-06-17T05:00:39.669Z,15.94
2023-06-17T05:05:41.238Z,15.99
2023-06-17T05:10:42.287Z,16.21
2023-06-17T05:15:44.247Z,16.48
2023-06-17T05:20:45.219Z,16.44
2023-06-17T05:25:47.029Z,16.69
2023-06-17T05:30:49.245Z,16.62
2023-06-17T05:35:52.348Z,16.63
2023-06-17T05:40:53.090Z,16.41
2023-06-17T05:45:55.354Z,16.51
2023-06-17T05:50:56.215Z,16.51
2023-06-17T05:55:57.831Z,16.58
2023-06-17T06:00:59.891Z,16.76
2023-06-17T06:06:03.106Z,17.05
2023-06-17T06:11:05.206Z,17.54
2023-06-17T06:16:08.693Z,17.74
2023-06-17T06:21:09.365Z,18.20
2023-06-17T06:26:10.021Z,18.12
2023-06-17T06:31:12.887Z,17.74
2023-06-17T06:36:13.554Z,17.60
2023-06-17T06:41:14.306Z,17.62
2023-06-17T06:46:25.250Z,17.85
2023-06-17T06:51:26.053Z,18.22
2023-06-17T06:56:27.985Z,18.40
2023-06-17T07:01:30.436Z,18.08
2023-06-17T07:06:33.307Z,18.82
2023-06-17T07:11:37.247Z,18.82
2023-06-17T07:16:39.666Z,18.58
2023-06-17T07:21:40.452Z,19.18
2023-06-17T07:26:41.246Z,19.62
2023-06-17T07:31:43.914Z,18.92
2023-06-17T07:36:44.631Z,19.22
2023-06-17T07:41:46.796Z,19.45
2023-06-17T07:46:48.886Z,19.26
2023-06-17T07:51:49.632Z,19.04
2023-06-17T07:56:50.267Z,19.15
2023-06-17T08:01:52.364Z,19.42
2023-06-17T08:06:53.490Z,19.94
2023-06-17T08:11:54.445Z,19.98
2023-06-17T08:16:57.104Z,19.68
2023-06-17T08:21:57.832Z,19.79
2023-06-17T08:26:58.598Z,19.41
2023-06-17T08:32:00.614Z,19.40
2023-06-17T08:37:05.689Z,19.64
2023-06-17T08:42:07.531Z,19.82
2023-06-17T08:47:12.490Z,19.36
2023-06-17T08:52:14.935Z,19.78
2023-06-17T08:57:16.384Z,20.05
2023-06-17T09:02:18.480Z,19.73
2023-06-17T09:07:19.108Z,19.79
2023-06-17T09:12:19.765Z,19.77
2023-06-17T09:17:33.116Z,20.18
2023-06-17T09:22:33.992Z,20.09
2023-06-17T09:27:34.857Z,20.42
2023-06-17T09:32:41.869Z,20.95
2023-06-17T09:37:58.071Z,20.04
2023-06-17T09:43:25.018Z,19.46
2023-06-17T09:48:30.928Z,19.65
2023-06-17T09:53:31.943Z,20.50
2023-06-17T09:58:33.124Z,20.73
2023-06-17T10:03:36.227Z,20.91
2023-06-17T10:08:38.426Z,20.48
2023-06-17T10:13:42.249Z,20.24
2023-06-17T10:18:48.735Z,20.84
2023-06-17T10:23:50.955Z,21.67
2023-06-17T10:29:01.973Z,21.66
2023-06-17T10:34:04.972Z,21.52
2023-06-17T10:39:07.504Z,21.31
2023-06-17T10:44:29.454Z,21.23
2023-06-17T10:49:41.553Z,21.21
2023-06-17T10:54:46.740Z,21.05
2023-06-17T10:59:47.429Z,21.69
2023-06-17T11:04:49.687Z,21.52
2023-06-17T11:09:50.414Z,21.36
2023-06-17T11:14:51.137Z,21.36
2023-06-17T11:19:53.174Z,21.66
2023-06-17T11:24:53.959Z,21.73
2023-06-17T11:29:54.617Z,22.13
2023-06-17T11:34:57.210Z,22.54
2023-06-17T11:39:58.411Z,22.45
2023-06-17T11:44:59.535Z,22.97
2023-06-17T11:50:07.969Z,23.09
2023-06-17T11:55:15.149Z,22.87
2023-06-17T12:00:16.771Z,21.39
2023-06-17T12:05:18.850Z,19.66
2023-06-17T12:10:19.896Z,19.29
2023-06-17T12:15:36.308Z,19.31
2023-06-17T12:20:39.733Z,19.75
2023-06-17T12:25:40.427Z,19.31
2023-06-17T12:30:41.286Z,19.07
2023-06-17T12:35:43.289Z,19.27
2023-06-17T12:40:44.193Z,19.40
2023-06-17T12:45:44.860Z,19.95
2023-06-17T12:50:47.265Z,20.74
2023-06-17T12:55:48.068Z,20.94
2023-06-17T13:00:49.034Z,20.86
2023-06-17T13:05:52.560Z,21.39
2023-06-17T13:10:53.225Z,22.14
2023-06-17T13:15:54.511Z,22.49
2023-06-17T13:20:56.488Z,22.50
2023-06-17T13:25:57.178Z,22.90
2023-06-17T13:31:02.296Z,23.02
2023-06-17T13:36:04.436Z,23.57
2023-06-17T13:41:05.166Z,23.40
2023-06-17T13:46:06.044Z,23.29
2023-06-17T13:51:08.380Z,22.78
2023-06-17T13:56:09.613Z,22.38
2023-06-17T14:01:10.406Z,21.88
2023-06-17T14:06:12.594Z,21.73
2023-06-17T14:11:13.278Z,21.54
2023-06-17T14:16:14.229Z,20.47
2023-06-17T14:21:33.668Z,19.96
2023-06-17T14:26:36.075Z,20.03
2023-06-17T14:31:37.043Z,20.44
2023-06-17T14:36:39.026Z,21.55
2023-06-17T14:41:39.651Z,22.96
2023-06-17T14:46:41.500Z,23.50
2023-06-17T14:51:44.254Z,23.71
2023-06-17T14:56:46.389Z,24.46
2023-06-17T15:01:47.333Z,24.31
2023-06-17T15:06:49.428Z,23.81
2023-06-17T15:11:50.066Z,21.68
2023-06-17T15:16:51.292Z,20.29
2023-06-17T15:21:53.385Z,19.92
2023-06-17T15:26:54.249Z,19.35
2023-06-17T15:31:54.894Z,19.28
2023-06-17T15:36:56.855Z,19.56
2023-06-17T15:41:57.497Z,19.31
2023-06-17T15:47:00.380Z,19.14
2023-06-17T15:52:02.620Z,18.70
2023-06-17T15:57:05.079Z,18.30
2023-06-17T16:02:06.342Z,18.34
2023-06-17T16:07:10.444Z,18.17
2023-06-17T16:12:13.049Z,18.51
2023-06-17T16:17:13.878Z,18.75
2023-06-17T16:22:15.923Z,18.61
2023-06-17T16:27:16.759Z,18.49
2023-06-17T16:32:17.403Z,18.55
2023-06-17T16:37:19.415Z,18.82
2023-06-17T16:42:20.077Z,19.19
2023-06-17T16:47:22.620Z,19.87
2023-06-17T16:52:25.159Z,21.57
2023-06-17T16:57:25.983Z,22.78
2023-06-17T17:02:27.100Z,23.09
2023-06-17T17:07:29.308Z,24.12
2023-06-17T17:12:29.956Z,24.95
2023-06-17T17:17:30.639Z,25.86
2023-06-17T17:22:32.789Z,26.48
2023-06-17T17:27:33.575Z,26.24
2023-06-17T17:32:34.436Z,26.40
2023-06-17T17:37:37.209Z,26.72
2023-06-17T17:42:37.900Z,26.70
2023-06-17T17:47:38.636Z,26.83
2023-06-17T17:52:41.222Z,26.32
2023-06-17T17:57:41.891Z,26.06
2023-06-17T18:02:42.774Z,25.32
2023-06-17T18:07:45.553Z,24.51
2023-06-17T18:12:47.024Z,23.34
2023-06-17T18:17:47.905Z,22.08
2023-06-17T18:22:50.253Z,21.73
2023-06-17T18:27:50.934Z,21.08
2023-06-17T18:32:51.666Z,20.52
2023-06-17T18:37:53.958Z,20.07
2023-06-17T18:42:54.636Z,19.77
2023-06-17T18:47:55.724Z,19.57
2023-06-17T18:52:57.743Z,19.36
2023-06-17T18:57:58.646Z,19.13
2023-06-17T19:02:59.621Z,18.95
2023-06-17T19:08:01.710Z,18.56
2023-06-17T19:13:03.583Z,18.41
2023-06-17T19:18:04.736Z,17.99
2023-06-17T19:23:07.635Z,17.97
2023-06-17T19:28:08.286Z,17.71
2023-06-17T19:33:08.941Z,17.61
2023-06-17T19:38:11.496Z,17.50
2023-06-17T19:43:12.237Z,17.26
2023-06-17T19:48:13.012Z,17.21
2023-06-17T19:53:15.078Z,17.07
2023-06-17T19:58:15.713Z,16.93
2023-06-17T20:03:16.697Z,16.75
2023-06-17T20:08:18.842Z,16.64
2023-06-17T20:13:20.579Z,16.61
2023-06-17T20:18:21.217Z,16.53
2023-06-17T20:23:24.741Z,16.46
2023-06-17T20:28:25.460Z,16.37
2023-06-17T20:33:26.221Z,16.30
2023-06-17T20:38:29.111Z,16.24
2023-06-17T20:43:29.815Z,16.09
2023-06-17T20:48:31.283Z,15.99
2023-06-17T20:53:33.233Z,15.92
2023-06-17T20:58:33.968Z,15.87
2023-06-17T21:03:34.733Z,15.79
2023-06-17T21:08:36.800Z,15.70
2023-06-17T21:13:37.443Z,15.67
2023-06-17T21:18:38.100Z,15.59
2023-06-17T21:23:40.057Z,15.51
2023-06-17T21:28:41.022Z,15.44
2023-06-17T21:33:41.694Z,15.34
2023-06-17T21:38:43.749Z,15.29
2023-06-17T21:43:44.409Z,15.21
2023-06-17T21:48:45.091Z,15.19
2023-06-17T21:53:47.063Z,15.11
2023-06-17T21:58:47.738Z,15.12
2023-06-17T22:03:48.489Z,15.06
2023-06-17T22:08:50.625Z,15.01
2023-06-17T22:13:51.308Z,14.89
2023-06-17T22:18:52.430Z,14.85
2023-06-17T22:23:54.506Z,14.74
2023-06-17T22:28:55.175Z,14.78
2023-06-17T22:33:55.806Z,14.65
2023-06-17T22:38:57.770Z,14.64
2023-06-17T22:43:58.461Z,14.59
2023-06-17T22:48:59.568Z,14.47
2023-06-17T22:54:01.586Z,14.49
2023-06-17T22:59:02.210Z,14.45
2023-06-17T23:04:04.011Z,14.38
2023-06-17T23:09:07.701Z,14.32
2023-06-17T23:14:09.260Z,14.25
2023-06-17T23:19:10.093Z,14.17
2023-06-17T23:24:13.275Z,14.16
2023-06-17T23:29:14.216Z,14.17
2023-06-17T23:34:14.851Z,14.09
2023-06-17T23:39:17.331Z,14.06
2023-06-17T23:44:18.453Z,14.00
2023-06-17T23:49:19.099Z,13.92
2023-06-17T23:54:21.154Z,13.89
2023-06-17T23:59:21.782Z,13.80
